Time;durP1;ratioP1;P1;durP2;ratioP2;P2;SDS_P1;SDS_P2;PMS_P1;PMS_P2;Temp;Humidity;BMP_temperature;BMP_pressure;BME280_temperature;BME280_humidity;BME280_pressure;Samples;Min_cycle;Max_cycle;Signal;HPM_P1;HPM_P2
2024/02/11 00:01:26;;;;;;;0.45;0.45;;;;;;;12.53;74.28;98733.16;5114459;28;20008;-81
2024/02/11 00:03:54;;;;;;;0.20;0.20;;;;;;;12.56;74.10;98730.31;5112154;28;20024;-81
2024/02/11 00:06:21;;;;;;;0.10;0.10;;;;;;;12.58;73.86;98727.56;5108296;28;20088;-81
2024/02/11 00:08:49;;;;;;;0.50;0.50;;;;;;;12.59;74.01;98724.81;5107236;28;20032;-81
2024/02/11 00:11:16;;;;;;;0.40;0.40;;;;;;;12.62;74.28;98724.63;5110433;28;20095;-80
2024/02/11 00:13:43;;;;;;;0.10;0.10;;;;;;;12.64;74.19;98723.69;5108021;28;20079;-81
2024/02/11 00:16:10;;;;;;;0.10;0.10;;;;;;;12.64;74.03;98718.38;5113630;28;20028;-81
2024/02/11 00:18:37;;;;;;;0.10;0.10;;;;;;;12.64;73.78;98718.38;5114251;28;20027;-82
2024/02/11 00:21:05;;;;;;;0.10;0.10;;;;;;;12.63;74.45;98714.84;5103978;28;20028;-82
2024/02/11 00:23:34;;;;;;;0.10;0.10;;;;;;;12.62;73.94;98710.47;5112526;28;20036;-81
2024/02/11 00:26:01;;;;;;;0.20;0.20;;;;;;;12.62;74.19;98706.03;5113322;28;20042;-81
2024/02/11 00:28:28;;;;;;;0.50;0.50;;;;;;;12.62;73.71;98708.69;5113257;28;20031;-81
2024/02/11 00:30:57;;;;;;;0.40;0.40;;;;;;;12.62;74.03;98703.38;5108583;28;20020;-81
2024/02/11 00:33:24;;;;;;;0.20;0.20;;;;;;;12.59;74.26;98695.56;5105215;28;20024;-82
2024/02/11 00:35:51;;;;;;;1.08;1.08;;;;;;;12.60;73.89;98699.94;5109880;28;20418;-81
2024/02/11 00:38:19;;;;;;;0.10;0.10;;;;;;;12.60;74.11;98699.09;5112608;28;20020;-81
2024/02/11 00:40:45;;;;;;;0.10;0.10;;;;;;;12.60;74.43;98702.59;5107188;28;20505;-81
2024/02/11 00:43:12;;;;;;;0.10;0.10;;;;;;;12.59;73.78;98698.25;5107372;28;20042;-80
2024/02/11 00:45:39;;;;;;;0.10;0.10;;;;;;;12.60;74.15;98699.94;5106608;28;20050;-82
2024/02/11 00:48:06;;;;;;;0.10;0.10;;;;;;;12.60;73.99;98694.63;5098385;28;20048;-80
2024/02/11 00:50:33;;;;;;;0.20;0.20;;;;;;;12.61;74.29;98704.31;5107773;28;20054;-82
2024/02/11 00:53:02;;;;;;;0.10;0.10;;;;;;;12.61;74.37;98712.28;5101138;28;20044;-82
2024/02/11 00:55:30;;;;;;;0.90;0.75;;;;;;;12.56;74.23;98709.06;5098290;28;20040;-81
2024/02/11 00:57:56;;;;;;;0.10;0.10;;;;;;;12.59;74.01;98708.84;5104607;28;20024;-81
2024/02/11 01:00:23;;;;;;;0.22;0.22;;;;;;;12.59;74.58;98710.69;5112880;28;20032;-80
2024/02/11 01:02:49;;;;;;;0.60;0.60;;;;;;;12.60;74.13;98713.22;5115768;28;20028;-81
2024/02/11 01:05:16;;;;;;;0.10;0.10;;;;;;;12.59;74.35;98713.34;5115876;28;20028;-80
2024/02/11 01:07:42;;;;;;;0.32;0.32;;;;;;;12.60;74.15;98717.69;5117015;28;20035;-81
2024/02/11 01:10:12;;;;;;;0.30;0.30;;;;;;;12.59;74.72;98719.50;5116172;28;20032;-81
2024/02/11 01:12:40;;;;;;;0.50;0.50;;;;;;;12.56;74.74;98719.69;5116586;28;20019;-81
2024/02/11 01:15:11;;;;;;;0.10;0.10;;;;;;;12.56;74.37;98725.00;5114824;28;20034;-81
2024/02/11 01:17:39;;;;;;;0.10;0.10;;;;;;;12.56;74.16;98722.34;5113340;28;20024;-82
2024/02/11 01:20:09;;;;;;;0.10;0.10;;;;;;;12.57;74.29;98726.72;5114420;28;20028;-81
2024/02/11 01:22:38;;;;;;;0.20;0.20;;;;;;;12.55;74.86;98722.44;5113810;28;20028;-81
2024/02/11 01:25:05;;;;;;;0.10;0.10;;;;;;;12.52;75.05;98723.47;5112697;28;20039;-82
2024/02/11 01:27:31;;;;;;;0.20;0.20;;;;;;;12.51;74.91;98716.47;5112367;28;20028;-82
2024/02/11 01:29:57;;;;;;;0.20;0.20;;;;;;;12.48;74.86;98721.97;5112387;28;20043;-82
2024/02/11 01:32:24;;;;;;;0.38;0.38;;;;;;;12.46;75.00;98724.72;5111599;28;20314;-82
2024/02/11 01:34:50;;;;;;;0.20;0.20;;;;;;;12.46;75.30;98723.84;5110334;28;20095;-82
2024/02/11 01:37:16;;;;;;;0.98;0.98;;;;;;;12.43;75.35;98724.06;5111536;28;20079;-81
2024/02/11 01:39:43;;;;;;;0.80;0.80;;;;;;;12.41;75.49;98725.94;5111733;28;20049;-82
2024/02/11 01:42:09;;;;;;;0.15;0.15;;;;;;;12.44;75.60;98731.06;5110961;28;20054;-81
2024/02/11 01:44:37;;;;;;;1.88;1.75;;;;;;;12.44;75.51;98725.75;5109073;28;20028;-81
2024/02/11 01:47:04;;;;;;;1.38;1.38;;;;;;;12.47;74.68;98728.22;5098645;28;20117;-81
2024/02/11 01:49:31;;;;;;;1.38;1.38;;;;;;;12.47;74.95;98733.53;5094605;28;20035;-81
2024/02/11 01:52:00;;;;;;;2.47;0.88;;;;;;;12.48;75.32;98732.59;5094551;28;20050;-80
2024/02/11 01:54:29;;;;;;;0.68;0.68;;;;;;;12.48;75.35;98726.44;5095202;28;20444;-80
2024/02/11 01:56:56;;;;;;;0.80;0.60;;;;;;;12.49;75.13;98734.31;5096092;28;20024;-80
2024/02/11 01:59:23;;;;;;;0.22;0.22;;;;;;;12.51;75.34;98731.53;5096760;28;20056;-80
2024/02/11 02:01:50;;;;;;;0.10;0.10;;;;;;;12.52;75.17;98731.44;5096889;28;20384;-81
2024/02/11 02:04:16;;;;;;;0.10;0.10;;;;;;;12.54;75.30;98726.91;5099365;28;20049;-80
2024/02/11 02:06:42;;;;;;;0.10;0.10;;;;;;;12.56;75.07;98724.13;5101323;28;20453;-81
2024/02/11 02:09:11;;;;;;;0.68;0.68;;;;;;;12.55;75.54;98717.97;5104849;28;20016;-80
2024/02/11 02:11:38;;;;;;;2.05;1.05;;;;;;;12.55;75.54;98719.78;5108975;28;20028;-80
2024/02/11 02:14:06;;;;;;;0.10;0.10;;;;;;;12.56;74.88;98713.50;5109882;28;20522;-81
2024/02/11 02:16:32;;;;;;;0.30;0.30;;;;;;;12.56;74.85;98719.69;5109358;28;20055;-83
2024/02/11 02:18:58;;;;;;;0.20;0.20;;;;;;;12.55;75.48;98711.81;5110135;28;20028;-82
2024/02/11 02:21:25;;;;;;;0.10;0.10;;;;;;;12.56;75.45;98718.81;5109796;28;20015;-80
2024/02/11 02:23:52;;;;;;;0.10;0.10;;;;;;;12.57;75.05;98716.09;5110248;28;20024;-82
2024/02/11 02:26:18;;;;;;;0.10;0.10;;;;;;;12.58;75.24;98712.47;5112227;28;20032;-82
2024/02/11 02:28:44;;;;;;;0.20;0.20;;;;;;;12.58;75.54;98709.81;5115441;28;20356;-82
2024/02/11 02:31:11;;;;;;;0.10;0.10;;;;;;;12.58;75.46;98711.63;5115266;28;20028;-81
2024/02/11 02:33:37;;;;;;;0.50;0.50;;;;;;;12.57;75.18;98705.47;5115237;28;20024;-82
2024/02/11 02:36:04;;;;;;;0.10;0.10;;;;;;;12.59;75.04;98702.72;5115779;28;20090;-81
2024/02/11 02:38:31;;;;;;;0.10;0.10;;;;;;;12.57;74.98;98702.81;5115276;28;20032;-82
2024/02/11 02:40:57;;;;;;;1.58;1.45;;;;;;;12.56;74.91;98698.44;5112573;28;20020;-80
2024/02/11 02:43:25;;;;;;;0.38;0.38;;;;;;;12.55;74.90;98696.72;5109870;28;20028;-80
2024/02/11 02:45:54;;;;;;;0.10;0.10;;;;;;;12.55;75.04;98696.72;5106286;28;20425;-81
2024/02/11 02:48:20;;;;;;;0.10;0.10;;;;;;;12.56;74.86;98697.56;5111897;28;20024;-81
2024/02/11 02:50:46;;;;;;;0.10;0.10;;;;;;;12.56;74.93;98698.44;5113155;28;20083;-81
2024/02/11 02:53:13;;;;;;;1.20;0.85;;;;;;;12.60;75.39;98696.44;5111622;28;20079;-81
2024/02/11 02:55:42;;;;;;;0.10;0.10;;;;;;;12.62;74.86;98698.06;5106446;28;20079;-79
2024/02/11 02:58:13;;;;;;;0.10;0.10;;;;;;;12.62;74.83;98692.75;5103117;28;20024;-81
2024/02/11 03:00:40;;;;;;;0.32;0.32;;;;;;;12.60;75.33;98697.28;5098837;28;20118;-81
2024/02/11 03:03:07;;;;;;;0.10;0.10;;;;;;;12.61;75.17;98693.69;5099060;28;20028;-81
2024/02/11 03:05:37;;;;;;;0.10;0.10;;;;;;;12.61;74.71;98696.34;5098696;28;20032;-81
2024/02/11 03:08:05;;;;;;;1.20;0.50;;;;;;;12.63;74.64;98693.59;5100000;28;20043;-82
2024/02/11 03:10:34;;;;;;;0.45;0.45;;;;;;;12.64;75.29;98694.47;5100618;28;20103;-80
2024/02/11 03:13:01;;;;;;;0.10;0.10;;;;;;;12.64;74.84;98691.81;5099834;28;20024;-81
2024/02/11 03:15:28;;;;;;;0.10;0.10;;;;;;;12.64;74.84;98689.16;5096925;28;20024;-81
2024/02/11 03:17:58;;;;;;;0.10;0.10;;;;;;;12.68;74.84;98691.50;5100208;28;20479;-81
2024/02/11 03:20:27;;;;;;;0.20;0.20;;;;;;;12.65;74.84;98686.38;5105284;28;20027;-81
2024/02/11 03:22:54;;;;;;;0.10;0.10;;;;;;;12.66;74.95;98687.22;5104741;28;20024;-81
2024/02/11 03:25:20;;;;;;;0.43;0.43;;;;;;;12.67;75.30;98688.94;5105962;28;20032;-82
2024/02/11 03:27:52;;;;;;;0.10;0.10;;;;;;;12.68;75.09;98688.00;5109394;28;20031;-81
2024/02/11 03:30:21;;;;;;;0.40;0.40;;;;;;;12.67;75.04;98695.09;5105356;28;20028;-82
2024/02/11 03:32:49;;;;;;;0.10;0.10;;;;;;;12.68;74.95;98690.66;5110925;28;20073;-81
2024/02/11 03:35:16;;;;;;;0.10;0.10;;;;;;;12.69;74.83;98687.03;5109108;28;20424;-82
2024/02/11 03:37:42;;;;;;;0.20;0.20;;;;;;;12.69;75.29;98687.03;5110174;28;20024;-81
2024/02/11 03:40:12;;;;;;;0.40;0.40;;;;;;;12.69;75.36;98687.03;5111351;28;20028;-80
2024/02/11 03:42:38;;;;;;;0.17;0.17;;;;;;;12.69;75.10;98687.03;5111993;28;20032;-80
2024/02/11 03:45:09;;;;;;;0.10;0.10;;;;;;;12.69;75.42;98692.34;5110809;28;20024;-81
2024/02/11 03:47:35;;;;;;;0.20;0.20;;;;;;;12.71;75.03;98690.44;5111218;28;20055;-80
2024/02/11 03:50:03;;;;;;;0.10;0.10;;;;;;;12.70;75.26;98694.91;5112376;28;20039;-82
2024/02/11 03:52:29;;;;;;;0.10;0.10;;;;;;;12.70;74.94;98691.41;5112470;28;20050;-82
2024/02/11 03:54:58;;;;;;;0.10;0.10;;;;;;;12.69;75.45;98695.00;5112102;28;20502;-82
2024/02/11 03:57:25;;;;;;;0.10;0.10;;;;;;;12.69;75.20;98693.19;5109914;28;20029;-80
2024/02/11 03:59:52;;;;;;;0.57;0.57;;;;;;;12.68;75.48;98695.97;5112435;28;20030;-81
2024/02/11 04:02:18;;;;;;;0.10;0.10;;;;;;;12.68;74.89;98693.31;5113030;28;20043;-80
2024/02/11 04:04:49;;;;;;;0.10;0.10;;;;;;;12.71;75.51;98701.06;5100546;28;20586;-81
2024/02/11 04:07:16;;;;;;;0.10;0.10;;;;;;;12.71;75.50;98707.25;5100585;28;20040;-81
2024/02/11 04:09:42;;;;;;;0.10;0.10;;;;;;;12.74;75.17;98711.50;5099250;28;20028;-80
2024/02/11 04:12:08;;;;;;;0.35;0.35;;;;;;;12.76;75.06;98712.25;5100712;28;20061;-80
2024/02/11 04:14:36;;;;;;;0.10;0.10;;;;;;;12.75;75.12;98713.22;5101090;28;20042;-81
2024/02/11 04:17:03;;;;;;;0.10;0.10;;;;;;;12.76;74.91;98709.59;5103838;28;20058;-80
2024/02/11 04:19:32;;;;;;;0.10;0.10;;;;;;;12.76;74.93;98709.59;5111569;28;20032;-81
2024/02/11 04:21:59;;;;;;;0.10;0.10;;;;;;;12.75;75.16;98708.75;5112664;28;20122;-81
2024/02/11 04:24:28;;;;;;;0.10;0.10;;;;;;;12.74;75.51;98706.19;5112060;28;20165;-81
2024/02/11 04:26:54;;;;;;;0.15;0.15;;;;;;;12.73;75.30;98705.31;5112389;28;20043;-81
2024/02/11 04:29:21;;;;;;;0.10;0.10;;;;;;;12.73;75.28;98701.84;5112707;28;20024;-80
2024/02/11 04:31:48;;;;;;;0.10;0.10;;;;;;;12.74;75.08;98698.22;5111449;28;20047;-82
2024/02/11 04:34:17;;;;;;;0.52;0.52;;;;;;;12.77;75.10;98695.38;5110860;28;20076;-81
2024/02/11 04:36:45;;;;;;;0.10;0.10;;;;;;;12.76;75.41;98699.84;5112017;28;20031;-81
2024/02/11 04:39:12;;;;;;;0.20;0.20;;;;;;;12.77;75.27;98700.69;5111271;28;20053;-81
2024/02/11 04:41:39;;;;;;;1.45;0.85;;;;;;;12.78;75.51;98697.06;5110646;28;20024;-82
2024/02/11 04:44:06;;;;;;;0.10;0.10;;;;;;;12.79;75.13;98698.78;5109062;28;20083;-81
2024/02/11 04:46:33;;;;;;;0.10;0.10;;;;;;;12.79;75.17;98698.78;5109812;28;20024;-81
2024/02/11 04:49:02;;;;;;;0.10;0.10;;;;;;;12.82;75.30;98698.56;5108540;28;20040;-81
2024/02/11 04:51:28;;;;;;;0.10;0.10;;;;;;;12.81;75.73;98701.34;5108060;28;20043;-81
2024/02/11 04:53:58;;;;;;;1.77;1.42;;;;;;;12.82;75.19;98703.91;5107040;28;20020;-82
2024/02/11 04:56:27;;;;;;;0.13;0.13;;;;;;;12.83;75.60;98705.59;5106743;28;20087;-81
2024/02/11 04:58:54;;;;;;;0.10;0.10;;;;;;;12.83;75.36;98700.28;5106714;28;20020;-81
2024/02/11 05:01:20;;;;;;;0.20;0.20;;;;;;;12.83;75.51;98705.59;5105875;28;20491;-80
2024/02/11 05:03:47;;;;;;;1.35;0.63;;;;;;;12.83;75.44;98710.91;5105275;28;20031;-81
2024/02/11 05:06:18;;;;;;;0.17;0.17;;;;;;;12.84;75.42;98711.78;5112442;28;20036;-80
2024/02/11 05:08:45;;;;;;;0.10;0.10;;;;;;;12.84;75.22;98714.44;5099599;28;20469;-81
2024/02/11 05:11:11;;;;;;;0.30;0.30;;;;;;;12.82;75.36;98709.22;5099535;28;20120;-80
2024/02/11 05:13:37;;;;;;;0.10;0.10;;;;;;;12.82;75.37;98711.88;5101779;28;20032;-81
2024/02/11 05:16:05;;;;;;;0.20;0.20;;;;;;;12.81;75.66;98715.50;5100827;28;20024;-81
2024/02/11 05:18:38;;;;;;;0.40;0.40;;;;;;;12.81;75.18;98718.16;5100801;28;20024;-82
2024/02/11 05:21:06;;;;;;;0.38;0.38;;;;;;;12.77;75.81;98727.25;5101410;28;20047;-81
2024/02/11 05:23:33;;;;;;;1.70;1.60;;;;;;;12.71;75.98;98731.16;5100855;28;20046;-81
2024/02/11 05:26:01;;;;;;;1.08;1.08;;;;;;;12.60;76.03;98734.47;5101930;28;20431;-80
2024/02/11 05:28:27;;;;;;;0.13;0.13;;;;;;;12.54;75.98;98739.34;5103156;28;20062;-81
2024/02/11 05:30:55;;;;;;;0.40;0.40;;;;;;;12.51;76.29;98745.69;5102768;28;20032;-81
2024/02/11 05:33:22;;;;;;;0.10;0.10;;;;;;;12.43;76.27;98745.31;5102397;28;20282;-80
2024/02/11 05:35:48;;;;;;;1.67;1.55;;;;;;;12.35;76.21;98760.84;5102935;28;20044;-80
2024/02/11 05:38:15;;;;;;;0.28;0.28;;;;;;;12.19;76.00;98758.28;5103480;28;20028;-81
2024/02/11 05:40:45;;;;;;;0.50;0.50;;;;;;;12.13;76.37;98759.50;5104555;28;20074;-80
2024/02/11 05:43:13;;;;;;;5.57;1.88;;;;;;;11.95;76.17;98767.56;5103523;28;20099;-81
2024/02/11 05:45:40;;;;;;;0.38;0.38;;;;;;;11.79;76.37;98783.53;5102492;28;20032;-82
2024/02/11 05:48:06;;;;;;;0.25;0.25;;;;;;;11.60;76.37;98775.78;5112723;28;20035;-82
2024/02/11 05:50:34;;;;;;;0.90;0.90;;;;;;;11.56;76.28;98771.59;5112190;28;20043;-81
2024/02/11 05:53:01;;;;;;;0.10;0.10;;;;;;;11.52;76.05;98782.47;5110563;28;20020;-80
2024/02/11 05:55:27;;;;;;;0.10;0.10;;;;;;;11.45;76.65;98789.91;5105435;28;20040;-80
2024/02/11 05:57:54;;;;;;;0.10;0.10;;;;;;;11.41;76.64;98788.38;5099496;28;20032;-80
2024/02/11 06:00:24;;;;;;;0.40;0.40;;;;;;;11.32;76.46;98790.59;5097863;28;20062;-82
2024/02/11 06:02:53;;;;;;;2.30;1.65;;;;;;;11.20;76.49;98785.97;5098811;28;20020;-79
2024/02/11 06:05:23;;;;;;;0.25;0.25;;;;;;;11.17;76.05;98786.16;5098262;28;20507;-79
2024/02/11 06:07:54;;;;;;;0.10;0.10;;;;;;;11.16;76.25;98789.75;5099433;28;20035;-80
2024/02/11 06:10:23;;;;;;;0.10;0.10;;;;;;;10.97;76.27;98789.91;5099901;28;20032;-79
2024/02/11 06:12:50;;;;;;;0.10;0.10;;;;;;;10.98;76.20;98794.28;5102480;28;20097;-79
2024/02/11 06:15:20;;;;;;;0.40;0.40;;;;;;;10.93;76.08;98798.94;5097416;28;20048;-79
2024/02/11 06:17:48;;;;;;;0.10;0.10;;;;;;;10.87;76.23;98799.31;5095757;28;20036;-79
2024/02/11 06:20:17;;;;;;;0.10;0.10;;;;;;;10.87;76.03;98805.44;5096335;28;20036;-79
2024/02/11 06:22:46;;;;;;;0.10;0.10;;;;;;;10.78;76.28;98811.22;5105777;28;20526;-79
2024/02/11 06:25:13;;;;;;;0.20;0.20;;;;;;;10.79;75.81;98812.94;5112117;28;20056;-80
2024/02/11 06:27:40;;;;;;;0.20;0.20;;;;;;;10.78;75.86;98819.19;5113983;28;20020;-78
2024/02/11 06:30:12;;;;;;;0.10;0.10;;;;;;;10.68;76.48;98819.69;5114272;28;20032;-81
2024/02/11 06:32:40;;;;;;;0.10;0.10;;;;;;;10.80;76.00;98825.25;5114719;28;20028;-79
2024/02/11 06:35:09;;;;;;;0.10;0.10;;;;;;;10.68;76.04;98837.38;5114406;28;20069;-78
2024/02/11 06:37:37;;;;;;;0.20;0.20;;;;;;;10.62;76.24;98837.69;5115197;28;20024;-80
2024/02/11 06:40:05;;;;;;;3.15;0.70;;;;;;;10.65;75.89;98843.69;5114883;28;20020;-79
2024/02/11 06:42:33;;;;;;;1.48;1.38;;;;;;;10.69;75.38;98849.66;5114409;28;20024;-80
2024/02/11 06:44:59;;;;;;;0.10;0.10;;;;;;;10.59;76.46;98865.19;5113169;28;20047;-80
2024/02/11 06:47:25;;;;;;;0.15;0.15;;;;;;;10.59;76.17;98854.59;5111774;28;20028;-80
2024/02/11 06:49:52;;;;;;;0.38;0.38;;;;;;;10.54;75.88;98861.06;5111893;28;20059;-80
2024/02/11 06:52:18;;;;;;;0.10;0.10;;;;;;;10.50;75.94;98863.00;5111435;28;20053;-81
2024/02/11 06:54:44;;;;;;;0.10;0.10;;;;;;;10.54;76.33;98876.94;5109813;28;20028;-81
2024/02/11 06:57:10;;;;;;;0.20;0.20;;;;;;;10.48;76.16;98872.81;5110761;28;20070;-81
2024/02/11 06:59:38;;;;;;;0.10;0.10;;;;;;;10.56;75.84;98881.22;5111337;28;20028;-81
2024/02/11 07:02:06;;;;;;;0.10;0.10;;;;;;;10.56;76.08;98886.53;5110180;28;20028;-81
2024/02/11 07:04:33;;;;;;;0.10;0.10;;;;;;;10.59;75.95;98891.69;5110291;28;20028;-80
2024/02/11 07:07:02;;;;;;;0.10;0.10;;;;;;;10.56;76.07;98889.16;5110452;28;20050;-81
2024/02/11 07:09:29;;;;;;;0.10;0.10;;;;;;;10.57;75.73;98890.88;5110192;28;20035;-80
2024/02/11 07:11:57;;;;;;;0.10;0.10;;;;;;;10.55;75.88;98903.34;5111079;28;20051;-80
2024/02/11 07:14:23;;;;;;;0.10;0.10;;;;;;;10.54;76.15;98906.06;5114909;28;20024;-81
2024/02/11 07:16:49;;;;;;;0.17;0.17;;;;;;;10.55;75.75;98907.78;5115556;28;20117;-81
2024/02/11 07:19:16;;;;;;;0.10;0.10;;;;;;;10.57;75.50;98911.22;5112390;28;20050;-79
2024/02/11 07:21:43;;;;;;;0.20;0.20;;;;;;;10.52;75.82;98922.06;5105270;28;20071;-81
2024/02/11 07:24:09;;;;;;;0.10;0.10;;;;;;;10.55;75.65;98927.19;5096944;28;20024;-81
2024/02/11 07:26:36;;;;;;;0.10;0.10;;;;;;;10.47;75.89;98930.22;5096453;28;20379;-80
2024/02/11 07:29:03;;;;;;;0.10;0.10;;;;;;;10.36;75.97;98936.03;5098199;28;20032;-80
2024/02/11 07:31:33;;;;;;;0.20;0.20;;;;;;;10.34;76.05;98932.59;5098216;28;20028;-79
2024/02/11 07:34:01;;;;;;;0.10;0.10;;;;;;;10.44;75.87;98945.41;5098100;28;20039;-78
2024/02/11 07:36:28;;;;;;;2.03;0.95;;;;;;;10.42;76.16;98939.31;5100362;28;20411;-81
2024/02/11 07:38:55;;;;;;;1.75;0.43;;;;;;;10.41;76.09;98942.91;5099175;28;20027;-78
2024/02/11 07:41:22;;;;;;;0.20;0.20;;;;;;;10.43;76.32;98943.69;5099347;28;20024;-80
2024/02/11 07:43:50;;;;;;;0.20;0.20;;;;;;;10.44;75.93;98950.69;5099712;28;20105;-80
2024/02/11 07:46:16;;;;;;;0.10;0.10;;;;;;;10.43;76.04;98954.25;5099074;28;20032;-78
2024/02/11 07:48:45;;;;;;;0.28;0.28;;;;;;;10.47;75.73;98958.50;5099502;28;20028;-80
2024/02/11 07:51:14;;;;;;;0.50;0.50;;;;;;;10.42;76.10;98952.53;5104786;28;20032;-78
2024/02/11 07:53:41;;;;;;;0.10;0.10;;;;;;;10.45;75.76;98960.34;5105460;28;20961;-79
2024/02/11 07:56:17;;;;;;;0.52;0.52;;;;;;;10.40;75.95;98967.66;5106033;28;20024;-79
2024/02/11 07:58:43;;;;;;;0.10;0.10;;;;;;;10.31;76.44;98968.94;5101654;28;20025;-79
2024/02/11 08:01:09;;;;;;;2.42;2.03;;;;;;;10.34;76.45;98971.44;5097936;28;20376;-79
2024/02/11 08:03:36;;;;;;;0.52;0.52;;;;;;;10.41;76.55;98967.59;5098100;28;20024;-79
2024/02/11 08:06:02;;;;;;;0.10;0.10;;;;;;;10.41;76.34;98964.94;5100079;28;20101;-81
2024/02/11 08:08:29;;;;;;;0.20;0.20;;;;;;;10.45;76.73;98973.59;5101590;28;20024;-80
2024/02/11 08:10:56;;;;;;;0.10;0.10;;;;;;;10.45;76.24;98968.28;5103224;28;20042;-81
2024/02/11 08:13:22;;;;;;;0.10;0.10;;;;;;;10.43;76.32;98971.03;5104893;28;20024;-80
2024/02/11 08:15:48;;;;;;;0.10;0.10;;;;;;;10.50;76.17;98966.28;5100482;28;20457;-79
2024/02/11 08:18:14;;;;;;;2.20;1.73;;;;;;;10.49;76.72;98976.03;5097368;28;20027;-80
2024/02/11 08:20:41;;;;;;;0.43;0.43;;;;;;;10.48;76.67;98978.72;5097750;28;20028;-79
2024/02/11 08:23:08;;;;;;;0.15;0.15;;;;;;;10.50;76.70;98979.50;5098530;28;20059;-80
2024/02/11 08:25:35;;;;;;;0.22;0.22;;;;;;;10.52;76.30;98986.44;5097684;28;20046;-80
2024/02/11 08:28:02;;;;;;;1.00;1.00;;;;;;;10.55;76.46;99000.47;5101324;28;20028;-80
2024/02/11 08:30:28;;;;;;;0.10;0.10;;;;;;;10.51;76.55;98995.31;5106427;28;20034;-80
2024/02/11 08:32:55;;;;;;;0.10;0.10;;;;;;;10.55;76.54;98996.03;5108139;28;20091;-79
2024/02/11 08:35:21;;;;;;;0.10;0.10;;;;;;;10.56;76.50;99004.84;5109042;28;20570;-80
2024/02/11 08:37:47;;;;;;;1.50;1.40;;;;;;;10.56;76.74;99008.34;5108341;28;20035;-80
2024/02/11 08:40:14;;;;;;;0.10;0.10;;;;;;;10.58;76.23;99005.59;5108252;28;20024;-81
2024/02/11 08:42:41;;;;;;;0.10;0.10;;;;;;;10.67;76.22;99006.00;5111261;28;20032;-80
2024/02/11 08:45:08;;;;;;;0.57;0.57;;;;;;;10.65;76.38;99007.91;5113866;28;20024;-80
2024/02/11 08:47:35;;;;;;;0.63;0.63;;;;;;;10.71;76.01;99011.16;5112571;28;20035;-82
2024/02/11 08:50:01;;;;;;;0.95;0.95;;;;;;;10.71;76.38;99017.31;5111441;28;20020;-80
2024/02/11 08:52:27;;;;;;;0.20;0.20;;;;;;;10.80;76.11;99018.63;5112202;28;20024;-80
2024/02/11 08:54:54;;;;;;;0.20;0.20;;;;;;;10.83;76.27;99027.28;5110872;28;20043;-81
2024/02/11 08:57:24;;;;;;;0.30;0.30;;;;;;;10.87;76.24;99028.00;5111230;28;20028;-81
2024/02/11 08:59:51;;;;;;;0.60;0.60;;;;;;;10.86;76.08;99036.88;5111920;28;20030;-81
2024/02/11 09:02:18;;;;;;;0.10;0.10;;;;;;;10.86;75.51;99038.69;5112260;28;20042;-82
2024/02/11 09:04:44;;;;;;;0.35;0.35;;;;;;;10.91;75.80;99044.59;5111672;28;20388;-82
2024/02/11 09:07:12;;;;;;;0.13;0.13;;;;;;;10.93;75.77;99040.06;5112756;28;20042;-82
2024/02/11 09:09:39;;;;;;;0.28;0.28;;;;;;;10.96;75.64;99043.41;5111793;28;20044;-80
2024/02/11 09:12:07;;;;;;;0.22;0.22;;;;;;;10.97;75.48;99049.59;5112651;28;20016;-81
2024/02/11 09:14:37;;;;;;;0.88;0.88;;;;;;;10.94;75.71;99052.38;5111562;28;20080;-82
2024/02/11 09:17:03;;;;;;;0.35;0.35;;;;;;;11.03;75.70;99048.41;5112008;28;20024;-80
2024/02/11 09:19:30;;;;;;;0.20;0.20;;;;;;;11.10;75.47;99049.81;5112351;28;20040;-81
2024/02/11 09:21:58;;;;;;;0.30;0.30;;;;;;;11.04;74.96;99050.13;5111620;28;20028;-81
2024/02/11 09:24:25;;;;;;;0.10;0.10;;;;;;;11.10;75.54;99056.00;5108962;28;20406;-79
2024/02/11 09:26:51;;;;;;;0.63;0.63;;;;;;;11.14;75.27;99061.97;5111062;28;20045;-80
2024/02/11 09:29:20;;;;;;;0.43;0.43;;;;;;;11.09;75.01;99056.06;5110610;28;20029;-80
2024/02/11 09:31:47;;;;;;;0.13;0.13;;;;;;;11.08;75.21;99062.28;5111589;28;20020;-80
2024/02/11 09:34:13;;;;;;;0.13;0.13;;;;;;;11.13;74.94;99070.88;5110613;28;20059;-80
2024/02/11 09:36:40;;;;;;;0.95;0.95;;;;;;;11.14;74.49;99067.28;5107895;28;20028;-79
2024/02/11 09:39:06;;;;;;;0.20;0.20;;;;;;;11.13;74.50;99069.06;5101202;28;20510;-79
2024/02/11 09:41:33;;;;;;;0.25;0.25;;;;;;;11.04;74.50;99066.03;5095079;28;20028;-79
2024/02/11 09:44:02;;;;;;;0.10;0.10;;;;;;;11.12;74.57;99070.00;5088041;28;20088;-80
2024/02/11 09:46:30;;;;;;;1.40;0.80;;;;;;;11.21;74.99;99078.44;5097581;28;20024;-79
2024/02/11 09:48:58;;;;;;;0.55;0.55;;;;;;;11.19;74.83;99081.19;5098608;28;20052;-79
2024/02/11 09:51:27;;;;;;;2.55;2.45;;;;;;;11.18;74.04;99084.75;5098242;28;20050;-80
2024/02/11 09:53:58;;;;;;;0.20;0.20;;;;;;;11.38;74.47;99086.38;5098982;28;20127;-80
2024/02/11 09:56:24;;;;;;;0.10;0.10;;;;;;;11.45;74.35;99087.78;5098023;28;20071;-80
2024/02/11 09:58:52;;;;;;;0.20;0.20;;;;;;;11.50;74.60;99095.47;5097754;28;20028;-80
2024/02/11 10:01:19;;;;;;;0.10;0.10;;;;;;;11.52;74.36;99092.78;5098618;28;20057;-80
2024/02/11 10:03:50;;;;;;;0.43;0.43;;;;;;;11.57;74.06;99099.53;5099417;28;20040;-80
2024/02/11 10:06:17;;;;;;;0.90;0.55;;;;;;;11.61;73.74;99100.25;5100538;28;20028;-80
2024/02/11 10:08:45;;;;;;;0.40;0.40;;;;;;;11.60;73.66;99098.50;5102261;28;20051;-80
2024/02/11 10:11:16;;;;;;;1.13;1.05;;;;;;;11.65;73.57;99093.81;5109748;28;20079;-82
2024/02/11 10:13:44;;;;;;;0.85;0.73;;;;;;;11.62;72.90;99100.16;5112418;28;20458;-82
2024/02/11 10:16:12;;;;;;;0.10;0.10;;;;;;;11.59;72.03;99100.31;5112623;28;20024;-82
2024/02/11 10:18:39;;;;;;;0.85;0.55;;;;;;;11.62;72.36;99099.31;5107554;28;20032;-82
2024/02/11 10:21:08;;;;;;;0.68;0.68;;;;;;;11.69;72.65;99098.06;5108812;28;20071;-81
2024/02/11 10:23:39;;;;;;;0.10;0.10;;;;;;;11.80;72.14;99100.13;5106842;28;20047;-81
2024/02/11 10:26:08;;;;;;;0.52;0.52;;;;;;;11.80;72.29;99101.00;5103253;28;20028;-81
2024/02/11 10:28:37;;;;;;;1.15;1.08;;;;;;;11.79;71.86;99106.38;5100888;28;20027;-80
2024/02/11 10:31:04;;;;;;;2.63;1.23;;;;;;;11.70;71.37;99120.13;5099651;28;20035;-81
2024/02/11 10:33:31;;;;;;;0.63;0.63;;;;;;;11.77;71.31;99118.88;5099456;28;20024;-80
2024/02/11 10:36:03;;;;;;;1.52;1.48;;;;;;;11.78;71.35;99125.91;5099319;28;20031;-79
2024/02/11 10:38:31;;;;;;;3.20;2.33;;;;;;;11.79;72.25;99127.63;5101318;28;20024;-80
2024/02/11 10:41:00;;;;;;;0.10;0.10;;;;;;;11.81;71.87;99131.03;5104007;28;20272;-80
2024/02/11 10:43:28;;;;;;;0.52;0.52;;;;;;;11.74;71.33;99130.50;5108084;28;20138;-79
2024/02/11 10:45:54;;;;;;;0.20;0.20;;;;;;;11.63;70.80;99133.69;5102012;28;20392;-80
2024/02/11 10:48:22;;;;;;;0.47;0.47;;;;;;;11.70;71.13;99133.38;5104213;28;20032;-81
2024/02/11 10:51:12;;;;;;;4.45;1.00;;;;;;;11.71;70.39;99130.66;5100254;28;20028;-80
2024/02/11 10:53:45;;;;;;;0.85;0.85;;;;;;;11.71;71.11;99129.81;5098902;28;20086;-80
2024/02/11 10:56:14;;;;;;;0.25;0.25;;;;;;;11.65;71.36;99126.53;5093352;28;20028;-79
2024/02/11 10:58:48;;;;;;;1.90;1.80;;;;;;;11.62;70.75;99131.97;5099930;28;20082;-80
2024/02/11 11:01:20;;;;;;;0.85;0.85;;;;;;;11.68;71.09;99137.94;5100994;28;20024;-80
2024/02/11 11:03:49;;;;;;;0.20;0.20;;;;;;;11.63;70.94;99146.97;5103777;28;20035;-81
2024/02/11 11:06:19;;;;;;;0.47;0.47;;;;;;;11.77;71.06;99151.56;5118657;28;20028;-79
2024/02/11 11:08:47;;;;;;;0.20;0.20;;;;;;;11.76;70.72;99151.63;5119819;28;20058;-83
2024/02/11 11:11:29;;;;;;;0.17;0.17;;;;;;;11.72;70.89;99137.66;5117404;28;20063;-80
2024/02/11 11:13:57;;;;;;;0.17;0.17;;;;;;;11.74;71.41;99134.94;5115774;28;20287;-82
2024/02/11 11:16:31;;;;;;;1.80;1.70;;;;;;;11.76;71.56;99133.06;5116204;28;20066;-82
2024/02/11 11:19:14;;;;;;;0.47;0.47;;;;;;;11.84;70.71;99136.19;5115632;28;20051;-82
2024/02/11 11:21:58;;;;;;;3.78;1.73;;;;;;;11.94;70.97;99132.09;5116014;28;20016;-79
2024/02/11 11:24:25;;;;;;;0.10;0.10;;;;;;;12.01;71.49;99137.13;5115275;28;20035;-81
2024/02/11 11:26:55;;;;;;;0.10;0.10;;;;;;;12.00;70.72;99132.75;5116021;28;20060;-80
2024/02/11 11:29:27;;;;;;;0.30;0.30;;;;;;;12.12;70.54;99126.78;5115604;28;20059;-82
2024/02/11 11:31:58;;;;;;;0.17;0.17;;;;;;;12.13;70.13;99131.16;5115112;28;20032;-81
2024/02/11 11:34:26;;;;;;;0.52;0.52;;;;;;;12.18;70.21;99133.56;5114224;28;20020;-81
2024/02/11 11:36:52;;;;;;;1.67;1.58;;;;;;;12.10;70.32;99137.47;5117074;28;20016;-80